createdAt,value
2023-04-23T00:02:23.765Z,88.20
2023-04-23T00:04:54.279Z,88.20
2023-04-23T00:07:24.580Z,88.13
2023-04-23T00:09:54.194Z,88.75
2023-04-23T00:12:22.638Z,88.34
2023-04-23T00:14:50.967Z,88.35
2023-04-23T00:17:19.803Z,88.49
2023-04-23T00:19:48.374Z,88.46
2023-04-23T00:22:17.202Z,88.37
2023-04-23T00:24:46.491Z,88.21
2023-04-23T00:27:14.458Z,88.46
2023-04-23T00:29:43.436Z,88.81
2023-04-23T00:32:11.331Z,88.75
2023-04-23T00:34:39.567Z,89.31
2023-04-23T00:37:08.068Z,88.84
2023-04-23T00:39:37.705Z,88.80
2023-04-23T00:42:12.526Z,89.23
2023-04-23T00:44:41.781Z,88.73
2023-04-23T00:47:10.705Z,88.94
2023-04-23T00:49:39.344Z,89.01
2023-04-23T00:52:07.336Z,89.11
2023-04-23T00:54:35.326Z,89.38
2023-04-23T00:57:03.743Z,88.97
2023-04-23T00:59:32.987Z,89.25
2023-04-23T01:02:01.132Z,88.49
2023-04-23T01:04:29.792Z,89.16
2023-04-23T01:06:58.213Z,89.21
2023-04-23T01:09:27.690Z,89.37
2023-04-23T01:11:55.606Z,88.84
2023-04-23T01:14:24.045Z,89.31
2023-04-23T01:16:53.485Z,88.95
2023-04-23T01:19:21.373Z,89.23
2023-04-23T01:21:51.226Z,89.12
2023-04-23T01:24:20.421Z,89.16
2023-04-23T01:26:48.485Z,89.39
2023-04-23T01:29:16.684Z,89.38
2023-04-23T01:31:44.814Z,89.36
2023-04-23T01:34:12.916Z,89.14
2023-04-23T01:36:41.841Z,89.13
2023-04-23T01:39:10.192Z,89.57
2023-04-23T01:41:40.097Z,89.22
2023-04-23T01:44:08.350Z,89.61
2023-04-23T01:46:36.372Z,89.45
2023-04-23T01:49:04.443Z,89.39
2023-04-23T01:51:32.656Z,89.71
2023-04-23T01:54:00.509Z,89.50
2023-04-23T01:56:30.811Z,89.68
2023-04-23T01:59:00.033Z,89.42
2023-04-23T02:01:28.163Z,89.99
2023-04-23T02:03:56.308Z,89.58
2023-04-23T02:06:24.410Z,89.85
2023-04-23T02:08:52.798Z,89.91
2023-04-23T02:11:20.790Z,89.19
2023-04-23T02:13:48.525Z,89.54
2023-04-23T02:16:18.465Z,90.02
2023-04-23T02:18:46.577Z,90.08
2023-04-23T02:21:14.653Z,89.86
2023-04-23T02:23:42.530Z,89.81
2023-04-23T02:26:10.476Z,89.58
2023-04-23T02:28:38.909Z,89.88
2023-04-23T02:31:06.964Z,89.83
2023-04-23T02:33:36.110Z,89.60
2023-04-23T02:36:03.978Z,89.94
2023-04-23T02:38:31.746Z,90.21
2023-04-23T02:40:59.500Z,89.44
2023-04-23T02:43:27.412Z,89.98
2023-04-23T02:45:55.247Z,89.90
2023-04-23T02:48:22.992Z,89.72
2023-04-23T02:50:52.414Z,90.19
2023-04-23T02:53:20.248Z,90.31
2023-04-23T02:55:48.006Z,90.28
2023-04-23T02:58:16.083Z,90.22
2023-04-23T03:00:43.937Z,90.19
2023-04-23T03:03:12.807Z,90.17
2023-04-23T03:05:40.757Z,89.88
2023-04-23T03:08:09.994Z,90.32
2023-04-23T03:10:37.812Z,90.53
2023-04-23T03:13:05.655Z,90.49
2023-04-23T03:15:33.437Z,90.36
2023-04-23T03:18:01.471Z,90.33
2023-04-23T03:20:29.420Z,90.37
2023-04-23T03:22:57.220Z,90.27
2023-04-23T03:25:26.858Z,90.66
2023-04-23T03:27:54.741Z,90.52
2023-04-23T03:30:22.502Z,90.51
2023-04-23T03:32:51.632Z,90.86
2023-04-23T03:35:19.584Z,90.77
2023-04-23T03:37:47.350Z,90.78
2023-04-23T03:40:15.315Z,90.88
2023-04-23T03:42:44.552Z,90.89
2023-04-23T03:45:13.424Z,90.55
2023-04-23T03:47:41.294Z,90.72
2023-04-23T03:50:10.280Z,90.77
2023-04-23T03:52:38.100Z,90.84
2023-04-23T03:55:06.413Z,90.97
2023-04-23T03:57:34.215Z,91.05
2023-04-23T04:00:03.970Z,91.06
2023-04-23T04:02:32.329Z,90.89
2023-04-23T04:05:00.448Z,91.15
2023-04-23T04:07:28.772Z,90.76
2023-04-23T04:09:56.564Z,90.89
2023-04-23T04:12:24.346Z,90.97
2023-04-23T04:14:52.333Z,91.15
2023-04-23T04:17:21.482Z,91.32
2023-04-23T04:19:49.876Z,91.24
2023-04-23T04:22:17.667Z,90.96
2023-04-23T04:24:47.508Z,91.30
2023-04-23T04:27:15.814Z,91.41
2023-04-23T04:29:43.643Z,91.30
2023-04-23T04:32:11.765Z,91.28
2023-04-23T04:34:41.164Z,91.23
2023-04-23T04:37:10.098Z,91.03
2023-04-23T04:39:37.885Z,91.33
2023-04-23T04:42:07.376Z,91.23
2023-04-23T04:44:37.582Z,90.77
2023-04-23T04:47:05.824Z,91.22
2023-04-23T04:49:33.617Z,91.21
2023-04-23T04:52:02.867Z,90.98
2023-04-23T04:54:30.656Z,91.39
2023-04-23T04:56:58.420Z,91.34
2023-04-23T04:59:26.305Z,90.85
2023-04-23T05:01:54.055Z,91.06
2023-04-23T05:04:21.870Z,91.31
2023-04-23T05:06:49.666Z,91.39
2023-04-23T05:09:18.846Z,91.54
2023-04-23T05:11:46.628Z,91.15
2023-04-23T05:14:14.439Z,91.57
2023-04-23T05:16:42.314Z,91.58
2023-04-23T05:19:10.343Z,91.25
2023-04-23T05:21:38.148Z,91.39
2023-04-23T05:24:06.268Z,91.11
2023-04-23T05:26:35.445Z,91.24
2023-04-23T05:29:04.139Z,91.75
2023-04-23T05:31:32.026Z,91.46
2023-04-23T05:33:59.802Z,91.66
2023-04-23T05:36:27.621Z,91.57
2023-04-23T05:38:55.437Z,90.97
2023-04-23T05:41:23.194Z,91.02
2023-04-23T05:43:55.489Z,91.55
2023-04-23T05:46:23.301Z,91.42
2023-04-23T05:48:51.188Z,90.83
2023-04-23T05:51:19.047Z,91.05
2023-04-23T05:53:46.828Z,90.86
2023-04-23T05:56:14.634Z,90.87
2023-04-23T05:58:42.979Z,90.48
2023-04-23T06:01:12.233Z,90.28
2023-04-23T06:03:42.072Z,90.25
2023-04-23T06:06:09.976Z,89.93
2023-04-23T06:08:37.844Z,90.37
2023-04-23T06:11:05.809Z,90.05
2023-04-23T06:13:33.847Z,89.72
2023-04-23T06:16:01.943Z,89.34
2023-04-23T06:18:31.282Z,90.06
2023-04-23T06:21:02.293Z,89.99
2023-04-23T06:23:30.139Z,89.57
2023-04-23T06:25:57.975Z,89.14
2023-04-23T06:28:25.846Z,89.52
2023-04-23T06:30:53.674Z,89.35
2023-04-23T06:33:21.474Z,89.30
2023-04-23T06:35:50.871Z,88.67
2023-04-23T06:38:21.274Z,89.16
2023-04-23T06:40:49.054Z,88.94
2023-04-23T06:43:16.902Z,88.98
2023-04-23T06:45:44.646Z,88.78
2023-04-23T06:48:12.513Z,88.44
2023-04-23T06:50:41.292Z,88.42
2023-04-23T06:53:10.591Z,88.31
2023-04-23T06:55:38.583Z,88.66
2023-04-23T06:58:07.285Z,88.13
2023-04-23T07:00:35.450Z,88.26
2023-04-23T07:03:03.636Z,87.83
2023-04-23T07:05:31.516Z,86.96
2023-04-23T07:07:59.294Z,86.59
2023-04-23T07:10:28.516Z,85.62
2023-04-23T07:12:56.415Z,85.35
2023-04-23T07:15:24.308Z,85.32
2023-04-23T07:17:52.131Z,85.01
2023-04-23T07:20:20.129Z,84.38
2023-04-23T07:22:48.084Z,84.20
2023-04-23T07:25:16.106Z,84.28
2023-04-23T07:27:45.367Z,84.37
2023-04-23T07:30:14.256Z,84.03
2023-04-23T07:32:42.103Z,83.73
2023-04-23T07:35:11.524Z,83.47
2023-04-23T07:37:39.490Z,83.98
2023-04-23T07:40:09.144Z,84.26
2023-04-23T07:42:36.904Z,84.08
2023-04-23T07:45:07.320Z,84.12
2023-04-23T07:47:35.215Z,84.19
2023-04-23T07:50:03.052Z,83.87
2023-04-23T07:52:30.905Z,83.53
2023-04-23T07:54:58.723Z,83.79
2023-04-23T07:57:26.901Z,83.45
2023-04-23T07:59:54.661Z,83.58
2023-04-23T08:02:26.342Z,83.51
2023-04-23T08:04:54.668Z,83.32
2023-04-23T08:07:22.617Z,83.00
2023-04-23T08:09:50.411Z,82.41
2023-04-23T08:12:18.200Z,82.77
2023-04-23T08:14:47.407Z,81.33
2023-04-23T08:17:15.156Z,81.73
2023-04-23T08:19:44.452Z,81.54
2023-04-23T08:22:13.343Z,81.34
2023-04-23T08:24:41.186Z,81.22
2023-04-23T08:27:08.913Z,80.94
2023-04-23T08:29:36.736Z,80.66
2023-04-23T08:32:04.917Z,80.90
2023-04-23T08:34:34.555Z,80.29
2023-04-23T08:37:06.492Z,79.76
2023-04-23T08:39:37.116Z,79.11
2023-04-23T08:42:12.603Z,78.47
2023-04-23T08:44:43.049Z,78.46
2023-04-23T08:47:13.592Z,78.33
2023-04-23T08:49:43.769Z,76.53
2023-04-23T08:52:17.082Z,76.50
2023-04-23T08:54:47.970Z,76.16
2023-04-23T08:57:17.725Z,74.41
2023-04-23T08:59:46.285Z,74.11
2023-04-23T09:02:15.972Z,74.51
2023-04-23T09:04:43.958Z,73.88
2023-04-23T09:07:13.931Z,72.56
2023-04-23T09:09:42.431Z,70.39
2023-04-23T09:12:10.691Z,69.49
2023-04-23T09:14:38.581Z,68.38
2023-04-23T09:17:06.820Z,68.73
2023-04-23T09:19:34.610Z,66.80
2023-04-23T09:22:02.450Z,66.96
2023-04-23T09:24:31.621Z,66.86
2023-04-23T09:27:00.118Z,65.10
2023-04-23T09:29:28.579Z,65.41
2023-04-23T09:31:57.420Z,64.97
2023-04-23T09:34:26.583Z,63.16
2023-04-23T09:36:54.735Z,62.68
2023-04-23T09:39:23.846Z,63.21
2023-04-23T09:41:54.201Z,62.86
2023-04-23T09:44:23.489Z,63.88
2023-04-23T09:46:51.596Z,64.43
2023-04-23T09:49:19.410Z,64.68
2023-04-23T09:51:49.122Z,64.12
2023-04-23T09:54:18.757Z,63.12
2023-04-23T09:56:50.726Z,63.24
2023-04-23T09:59:35.488Z,61.94
2023-04-23T10:02:12.715Z,62.30
2023-04-23T10:04:42.017Z,63.03
2023-04-23T10:09:44.608Z,62.46
2023-04-23T10:12:31.371Z,62.54
2023-04-23T10:15:02.091Z,62.61
2023-04-23T10:17:30.096Z,61.18
2023-04-23T10:19:59.411Z,62.16
2023-04-23T10:22:29.247Z,62.95
2023-04-23T10:24:58.743Z,63.38
2023-04-23T10:27:40.542Z,63.95
2023-04-23T10:30:18.263Z,63.31
2023-04-23T10:32:46.315Z,63.83
2023-04-23T10:35:14.142Z,63.59
2023-04-23T10:37:42.737Z,62.65
2023-04-23T10:40:14.283Z,63.46
2023-04-23T10:42:42.826Z,63.09
2023-04-23T10:45:23.156Z,62.27
2023-04-23T10:47:54.646Z,62.68
2023-04-23T10:50:24.082Z,62.20
2023-04-23T10:52:53.698Z,61.40
2023-04-23T10:55:22.734Z,60.58
2023-04-23T10:58:02.918Z,58.65
2023-04-23T11:00:32.513Z,58.24
2023-04-23T11:03:03.617Z,57.22
2023-04-23T11:05:31.526Z,56.37
2023-04-23T11:10:52.990Z,55.66
2023-04-23T11:13:28.067Z,57.70
2023-04-23T11:16:15.715Z,57.48
2023-04-23T11:19:03.608Z,55.95
2023-04-23T11:22:03.308Z,55.95
2023-04-23T11:24:37.154Z,56.20
2023-04-23T11:27:06.851Z,56.85
2023-04-23T11:29:35.048Z,56.62
2023-04-23T11:32:04.075Z,57.14
2023-04-23T11:34:34.126Z,56.22
2023-04-23T11:37:05.050Z,57.14
2023-04-23T11:39:32.927Z,56.21
2023-04-23T11:42:03.380Z,55.82
2023-04-23T11:44:31.916Z,55.29
2023-04-23T11:47:02.045Z,54.63
2023-04-23T11:49:29.894Z,54.50
2023-04-23T11:52:00.565Z,53.09
2023-04-23T11:54:29.530Z,51.49
2023-04-23T11:56:58.163Z,51.45
2023-04-23T11:59:26.116Z,52.94
2023-04-23T12:01:55.761Z,51.93
2023-04-23T12:04:24.764Z,52.37
2023-04-23T12:06:55.063Z,49.43
2023-04-23T12:09:25.532Z,48.79
2023-04-23T12:11:53.431Z,49.25
2023-04-23T12:14:26.958Z,48.99
2023-04-23T12:16:54.912Z,48.61
2023-04-23T12:19:27.878Z,47.44
2023-04-23T12:21:57.744Z,46.37
2023-04-23T12:24:28.722Z,46.08
2023-04-23T12:26:58.544Z,46.07
2023-04-23T12:29:26.860Z,46.43
2023-04-23T12:31:55.356Z,47.01
2023-04-23T12:34:23.375Z,47.70
2023-04-23T12:36:52.226Z,48.02
2023-04-23T12:39:32.068Z,47.59
2023-04-23T12:42:02.658Z,46.47
2023-04-23T12:44:30.876Z,45.52
2023-04-23T12:47:00.219Z,45.80
2023-04-23T12:49:28.490Z,44.96
2023-04-23T12:52:01.046Z,45.59
2023-04-23T12:54:34.188Z,44.27
2023-04-23T12:57:02.831Z,45.84
2023-04-23T12:59:31.055Z,46.03
2023-04-23T13:02:02.105Z,46.49
2023-04-23T13:04:30.597Z,45.34
2023-04-23T13:06:58.510Z,45.88
2023-04-23T13:09:27.987Z,44.32
2023-04-23T13:11:57.696Z,42.91
2023-04-23T13:14:26.090Z,44.07
2023-04-23T13:16:53.912Z,45.22
2023-04-23T13:19:21.885Z,44.50
2023-04-23T13:21:49.743Z,45.28
2023-04-23T13:24:17.689Z,45.72
2023-04-23T13:26:45.490Z,43.45
2023-04-23T13:29:14.614Z,43.39
2023-04-23T13:31:42.467Z,45.10
2023-04-23T13:34:10.239Z,44.80
2023-04-23T13:36:41.481Z,45.13
2023-04-23T13:39:11.025Z,45.38
2023-04-23T13:41:38.900Z,46.69
2023-04-23T13:44:06.652Z,48.15
2023-04-23T13:46:35.788Z,48.39
2023-04-23T13:49:03.654Z,49.58
2023-04-23T13:51:34.912Z,49.76
2023-04-23T13:54:03.747Z,51.34
2023-04-23T13:56:31.871Z,52.40
2023-04-23T13:59:12.092Z,51.84
2023-04-23T14:01:49.713Z,51.34
2023-04-23T14:04:17.975Z,51.26
2023-04-23T14:06:46.230Z,50.85
2023-04-23T14:09:13.978Z,51.30
2023-04-23T14:11:41.886Z,50.86
2023-04-23T14:14:09.778Z,50.92
2023-04-23T14:16:37.643Z,51.72
2023-04-23T14:19:07.460Z,52.81
2023-04-23T14:21:36.186Z,53.31
2023-04-23T14:24:10.276Z,52.18
2023-04-23T14:26:48.591Z,52.22
2023-04-23T14:29:24.598Z,52.19
2023-04-23T14:31:52.576Z,51.87
2023-04-23T14:34:22.252Z,52.13
2023-04-23T14:36:50.273Z,52.36
2023-04-23T14:39:18.079Z,51.11
2023-04-23T14:41:45.903Z,52.14
2023-04-23T14:44:13.837Z,51.62
2023-04-23T14:46:41.595Z,51.19
2023-04-23T14:49:09.624Z,50.51
2023-04-23T14:51:38.762Z,50.20
2023-04-23T14:54:07.286Z,50.44
2023-04-23T14:56:35.077Z,50.70
2023-04-23T14:59:03.246Z,50.95
2023-04-23T15:01:31.293Z,50.79
2023-04-23T15:03:59.293Z,50.61
2023-04-23T15:06:27.166Z,51.54
2023-04-23T15:08:56.356Z,51.20
2023-04-23T15:11:24.182Z,51.25
2023-04-23T15:13:57.786Z,51.81
2023-04-23T15:16:46.686Z,50.61
2023-04-23T15:19:17.936Z,51.51
2023-04-23T15:21:46.512Z,51.43
2023-04-23T15:24:15.921Z,51.51
2023-04-23T15:26:44.193Z,51.83
2023-04-23T15:29:13.494Z,51.79
2023-04-23T15:31:41.766Z,53.18
2023-04-23T15:34:09.890Z,52.45
2023-04-23T15:36:38.436Z,53.20
2023-04-23T15:39:07.176Z,52.22
2023-04-23T15:41:40.229Z,51.82
2023-04-23T15:44:10.869Z,52.85
2023-04-23T15:46:38.762Z,52.74
2023-04-23T15:49:06.636Z,52.55
2023-04-23T15:51:34.516Z,53.33
2023-04-23T15:54:02.929Z,53.24
2023-04-23T15:56:30.713Z,53.32
2023-04-23T15:58:59.858Z,52.88
2023-04-23T16:01:27.838Z,55.22
2023-04-23T16:04:09.501Z,56.84
2023-04-23T16:06:39.175Z,59.80
2023-04-23T16:09:08.214Z,65.39
2023-04-23T16:11:36.386Z,68.77
2023-04-23T16:14:06.232Z,72.10
2023-04-23T16:16:34.147Z,73.66
2023-04-23T16:19:02.750Z,74.55
2023-04-23T16:21:31.254Z,75.26
2023-04-23T16:23:59.101Z,75.42
2023-04-23T16:26:27.020Z,75.39
2023-04-23T16:29:05.742Z,75.37
2023-04-23T16:31:43.873Z,75.22
2023-04-23T16:34:11.685Z,74.93
2023-04-23T16:36:39.524Z,75.17
2023-04-23T16:39:07.406Z,75.53
2023-04-23T16:41:35.227Z,75.32
2023-04-23T16:44:03.028Z,75.75
2023-04-23T16:46:31.676Z,75.14
2023-04-23T16:49:01.222Z,75.58
2023-04-23T16:51:29.637Z,75.49
2023-04-23T16:53:57.705Z,75.39
2023-04-23T16:56:25.828Z,75.45
2023-04-23T16:58:53.625Z,75.30
2023-04-23T17:01:21.407Z,75.30
2023-04-23T17:03:49.329Z,75.33
2023-04-23T17:06:26.875Z,75.17
2023-04-23T17:08:54.988Z,75.11
2023-04-23T17:11:23.037Z,75.29
2023-04-23T17:13:51.010Z,75.08
2023-04-23T17:16:18.867Z,75.09
2023-04-23T17:18:46.711Z,75.13
2023-04-23T17:21:14.689Z,74.67
2023-04-23T17:23:43.846Z,75.35
2023-04-23T17:26:11.607Z,75.50
2023-04-23T17:28:40.779Z,75.35
2023-04-23T17:31:08.588Z,75.32
2023-04-23T17:33:36.663Z,75.08
2023-04-23T17:36:04.700Z,75.15
2023-04-23T17:38:32.706Z,75.24
2023-04-23T17:41:03.302Z,75.35
2023-04-23T17:43:31.853Z,75.52
2023-04-23T17:45:59.666Z,75.40
2023-04-23T17:48:27.459Z,75.45
2023-04-23T17:50:55.473Z,75.08
2023-04-23T17:53:23.297Z,74.93
2023-04-23T17:55:51.391Z,75.40
2023-04-23T17:58:21.455Z,75.62
2023-04-23T18:00:49.324Z,75.89
2023-04-23T18:03:18.829Z,75.96
2023-04-23T18:05:46.822Z,76.01
2023-04-23T18:08:16.304Z,75.85
2023-04-23T18:10:45.384Z,76.25
2023-04-23T18:13:13.626Z,76.42
2023-04-23T18:15:42.812Z,76.79
2023-04-23T18:18:10.640Z,76.85
2023-04-23T18:20:39.076Z,77.25
2023-04-23T18:23:08.024Z,77.42
2023-04-23T18:25:36.052Z,77.57
2023-04-23T18:28:04.096Z,78.09
2023-04-23T18:30:32.180Z,78.30
2023-04-23T18:33:09.728Z,78.49
2023-04-23T18:35:37.562Z,78.45
2023-04-23T18:38:07.903Z,78.63
2023-04-23T18:40:35.749Z,78.92
2023-04-23T18:43:03.522Z,78.66
2023-04-23T18:45:31.357Z,79.11
2023-04-23T18:48:06.254Z,79.37
2023-04-23T18:50:39.210Z,79.55
2023-04-23T18:53:06.988Z,79.76
2023-04-23T18:55:34.797Z,79.65
2023-04-23T18:58:02.585Z,79.59
2023-04-23T19:00:30.585Z,80.02
2023-04-23T19:02:58.962Z,80.36
2023-04-23T19:05:28.344Z,80.38
2023-04-23T19:07:56.148Z,80.60
2023-04-23T19:10:24.041Z,80.92
2023-04-23T19:12:51.804Z,81.04
2023-04-23T19:15:19.751Z,81.03
2023-04-23T19:17:47.700Z,81.40
2023-04-23T19:20:15.763Z,81.60
2023-04-23T19:22:45.457Z,81.64
2023-04-23T19:25:13.305Z,81.84
2023-04-23T19:27:41.065Z,81.58
2023-04-23T19:30:10.411Z,81.97
2023-04-23T19:32:38.205Z,81.95
2023-04-23T19:35:06.845Z,81.91
2023-04-23T19:37:36.066Z,82.47
2023-04-23T19:40:07.116Z,82.13
2023-04-23T19:42:34.904Z,81.78
2023-04-23T19:45:02.800Z,81.50
2023-04-23T19:47:32.560Z,81.36
2023-04-23T19:50:00.428Z,81.17
2023-04-23T19:52:28.430Z,81.67
2023-04-23T19:54:56.309Z,81.00
2023-04-23T19:57:25.961Z,81.34
2023-04-23T19:59:53.806Z,81.40
2023-04-23T20:02:21.811Z,82.03
2023-04-23T20:04:49.629Z,81.75
2023-04-23T20:07:17.738Z,82.08
2023-04-23T20:09:45.713Z,82.06
2023-04-23T20:12:14.206Z,82.77
2023-04-23T20:14:43.696Z,83.10
2023-04-23T20:17:11.500Z,83.33
2023-04-23T20:19:39.864Z,83.06
2023-04-23T20:22:07.960Z,83.26
2023-04-23T20:24:38.136Z,82.85
2023-04-23T20:27:06.965Z,83.70
2023-04-23T20:29:34.804Z,83.83
2023-04-23T20:32:03.983Z,83.84
2023-04-23T20:34:31.829Z,83.13
2023-04-23T20:37:00.204Z,82.56
2023-04-23T20:39:28.042Z,82.26
2023-04-23T20:41:57.822Z,81.51
2023-04-23T20:44:26.032Z,80.68
2023-04-23T20:46:53.896Z,80.31
2023-04-23T20:49:25.270Z,79.93
2023-04-23T20:51:53.032Z,79.26
2023-04-23T20:54:20.857Z,79.57
2023-04-23T20:56:53.979Z,79.11
2023-04-23T20:59:22.195Z,79.57
2023-04-23T21:01:51.029Z,79.30
2023-04-23T21:04:19.190Z,79.88
2023-04-23T21:06:51.006Z,79.43
2023-04-23T21:09:18.848Z,79.69
2023-04-23T21:11:46.684Z,79.80
2023-04-23T21:14:14.486Z,79.83
2023-04-23T21:16:42.228Z,80.22
2023-04-23T21:19:10.021Z,80.72
2023-04-23T21:21:37.916Z,81.17
2023-04-23T21:24:07.627Z,81.07
2023-04-23T21:26:35.867Z,81.57
2023-04-23T21:29:03.750Z,81.70
2023-04-23T21:31:40.578Z,81.50
2023-04-23T21:34:08.471Z,82.38
2023-04-23T21:36:36.567Z,81.85
2023-04-23T21:39:04.675Z,82.34
2023-04-23T21:41:33.925Z,82.17
2023-04-23T21:44:01.965Z,82.29
2023-04-23T21:46:30.587Z,82.12
2023-04-23T21:48:59.016Z,82.19
2023-04-23T21:51:28.057Z,82.81
2023-04-23T21:53:56.227Z,82.07
2023-04-23T21:56:24.415Z,82.48
2023-04-23T21:58:53.697Z,82.98
2023-04-23T22:01:21.574Z,83.29
2023-04-23T22:03:51.046Z,82.51
2023-04-23T22:06:19.367Z,83.12
2023-04-23T22:08:47.566Z,82.90
2023-04-23T22:11:17.382Z,82.87
2023-04-23T22:13:45.563Z,83.29
2023-04-23T22:16:27.326Z,83.55
2023-04-23T22:18:57.099Z,83.10
2023-04-23T22:21:24.933Z,83.79
2023-04-23T22:23:53.402Z,83.65
2023-04-23T22:26:21.970Z,83.85
2023-04-23T22:28:50.006Z,83.45
2023-04-23T22:31:19.583Z,83.97
2023-04-23T22:33:47.447Z,84.17
2023-04-23T22:36:17.010Z,84.65
2023-04-23T22:38:45.181Z,84.71
2023-04-23T22:41:12.977Z,84.30
2023-04-23T22:43:41.262Z,84.93
2023-04-23T22:46:09.222Z,85.04
2023-04-23T22:48:45.204Z,85.21
2023-04-23T22:51:13.271Z,85.12
2023-04-23T22:53:41.292Z,85.25
2023-04-23T22:56:09.483Z,85.24
2023-04-23T22:58:37.626Z,84.82
2023-04-23T23:01:06.172Z,85.32
2023-04-23T23:03:34.226Z,85.11
2023-04-23T23:06:03.788Z,85.03
2023-04-23T23:08:31.715Z,85.47
2023-04-23T23:11:00.116Z,85.55
2023-04-23T23:13:29.204Z,85.35
2023-04-23T23:16:00.503Z,85.06
2023-04-23T23:18:28.864Z,84.83
2023-04-23T23:20:56.689Z,84.95
2023-04-23T23:23:26.222Z,85.34
2023-04-23T23:25:55.026Z,85.11
2023-04-23T23:28:23.575Z,85.01
2023-04-23T23:30:51.471Z,85.64
2023-04-23T23:33:20.035Z,85.64
2023-04-23T23:35:48.314Z,85.16
2023-04-23T23:38:16.332Z,84.87
2023-04-23T23:40:45.711Z,85.34
2023-04-23T23:43:13.923Z,85.00
2023-04-23T23:45:41.828Z,84.83
2023-04-23T23:48:09.647Z,84.86
2023-04-23T23:50:37.936Z,85.35
2023-04-23T23:53:05.805Z,85.35
2023-04-23T23:55:33.945Z,85.02
2023-04-23T23:58:03.427Z,84.78
